Apple Creek, Missouri
Current Conditions -  °F | °C
As of 10:53 AM on Tuesday 21 Oct 2014 (Local Time) from KCGI Reporting Station
Clear Clear  
Wind Chill: 66°   Ceiling: Unl
Heat Index: 66°   Visibility: 10mi
Dew Point: 49°   Wind: 7mph
Humidity: 54%   Direction: 330°NNW
Pressure: 30.1"   Gusts: NA
Location:  37.5321°N, 89.7536°W
Report Text: KCGI 211553Z 33006KT 10SM CLR 19/09 A3010 RMK AO2 SLP193 T01890094
Loading
Personal Weather Stations






























Interactive Weather Map
Tropical Storm Tracking
New forecast layout! Learn more

10-Day Weather Forecast

Advertisements
Track Severe Weather on mobile